Comox Airport
CYQQ : now visible

Airfield :











YOU CAN JOIN US ON...

 
LOGIN :

Register | Disclaimer

   EN    FR    IT 

 









Legend :    VFR   Marginal VFR   IFR   Intensive IFR   Very Intensive IFR
Visi :
Ceiling :
>= 8 km
>= 3000ft
5 to 8 km
1000 to 3000 ft
1500m to 5 km
500 to 1000 ft
800 to 1500m
200 to 500 ft
< 800m
< 200 ft
Symbols :   Thunderstorms  Fog  Heavy snow  Heavy precipitations  Wind > 20 kt






- Airport Elevation : 84 ft
- IATA code : YQQ


CYQQ - Comox

CURRENT METAR :
  • 150700Z 29005KT 20SM FEW015 SCT033 04/01 A3005 RMK SC1SC4 SLP177

EXPIRED METARs :
  • 150600Z 33003KT 20SM FEW015 BKN034 04/02 A3004 RMK SC1SC7 SLP174
  • 150500Z 36005KT 20SM FEW015 BKN033 04/03 A3003 RMK SC1SC7 SLP170

TAF TAF CYQQ
Valid from the 15 at 06:00 until the 16 at 06:00 UTC


150539Z 1506/1606 31004KT P6SM FEW015 BKN030
FM151800 VRB03KT P6SM FEW015 BKN030
TEMPO 1518/1524 SCT030
FM160000 15005KT P6SM FEW015 BKN030
FM160400 13010KT P6SM BKN020 OVC120 RMK NXT FCST BY 151200Z



MET'MAP, your aeronautical weather chart ! - Copyright ORBIFLY December 2007 - Disclaimer

ORBIFLY MET'MAP TEAM :

Programming & Development : Alexandra Zaïnal
Concept & original design : Baudouin d'Aumeries
Assistance for programming : Marc-Olivier Méhu
Technical & hardware support : Manuel Goepfert

Contact : metmap@orbifly.com




SOURCES & CREDITS :

   NOAA       Earth
Advisory